sensor_id;sensor_type;location;lat;lon;timestamp;temperature;humidity
81311;DHT22;70779;52.506;5.492;2024-03-23T00:53:55;9.90;69.50
81311;DHT22;70779;52.506;5.492;2024-03-23T00:56:21;9.80;69.40
81311;DHT22;70779;52.506;5.492;2024-03-23T00:58:47;9.80;69.50
81311;DHT22;70779;52.506;5.492;2024-03-23T01:01:13;9.80;69.60
81311;DHT22;70779;52.506;5.492;2024-03-23T01:03:39;9.80;69.60
81311;DHT22;70779;52.506;5.492;2024-03-23T01:06:05;9.80;69.70
81311;DHT22;70779;52.506;5.492;2024-03-23T01:08:32;9.80;69.60
81311;DHT22;70779;52.506;5.492;2024-03-23T01:11:01;9.80;69.60
81311;DHT22;70779;52.506;5.492;2024-03-23T01:13:28;9.80;69.70
81311;DHT22;70779;52.506;5.492;2024-03-23T01:15:56;9.70;69.70
81311;DHT22;70779;52.506;5.492;2024-03-23T01:18:23;9.60;69.70
81311;DHT22;70779;52.506;5.492;2024-03-23T01:20:49;9.60;69.70
81311;DHT22;70779;52.506;5.492;2024-03-23T01:23:15;9.50;69.80
81311;DHT22;70779;52.506;5.492;2024-03-23T01:25:41;9.50;70.00
81311;DHT22;70779;52.506;5.492;2024-03-23T01:28:07;9.40;70.00
81311;DHT22;70779;52.506;5.492;2024-03-23T01:30:35;9.40;70.00
81311;DHT22;70779;52.506;5.492;2024-03-23T01:33:01;9.40;70.00
81311;DHT22;70779;52.506;5.492;2024-03-23T01:35:30;9.30;69.90
81311;DHT22;70779;52.506;5.492;2024-03-23T01:37:56;9.30;69.90
81311;DHT22;70779;52.506;5.492;2024-03-23T01:40:22;9.20;69.90
81311;DHT22;70779;52.506;5.492;2024-03-23T01:43:04;9.20;69.90
81311;DHT22;70779;52.506;5.492;2024-03-23T01:45:34;9.20;70.00
81311;DHT22;70779;52.506;5.492;2024-03-23T01:48:01;9.10;70.00
81311;DHT22;70779;52.506;5.492;2024-03-23T01:50:28;9.10;70.10
81311;DHT22;70779;52.506;5.492;2024-03-23T01:52:56;9.10;70.10
81311;DHT22;70779;52.506;5.492;2024-03-23T01:55:23;9.00;70.10
81311;DHT22;70779;52.506;5.492;2024-03-23T01:57:49;9.00;70.10
81311;DHT22;70779;52.506;5.492;2024-03-23T02:00:16;9.00;70.30
81311;DHT22;70779;52.506;5.492;2024-03-23T02:02:46;8.90;70.30
81311;DHT22;70779;52.506;5.492;2024-03-23T02:05:13;8.90;70.50
81311;DHT22;70779;52.506;5.492;2024-03-23T02:07:40;8.90;70.70
81311;DHT22;70779;52.506;5.492;2024-03-23T02:10:07;8.90;70.60
81311;DHT22;70779;52.506;5.492;2024-03-23T02:12:34;8.80;70.60
81311;DHT22;70779;52.506;5.492;2024-03-23T02:15:00;8.80;70.70
81311;DHT22;70779;52.506;5.492;2024-03-23T02:17:29;8.80;70.50
81311;DHT22;70779;52.506;5.492;2024-03-23T02:19:58;8.80;70.60
81311;DHT22;70779;52.506;5.492;2024-03-23T02:22:24;8.80;70.30
81311;DHT22;70779;52.506;5.492;2024-03-23T02:24:50;8.80;70.40
81311;DHT22;70779;52.506;5.492;2024-03-23T02:27:16;8.70;70.50
81311;DHT22;70779;52.506;5.492;2024-03-23T02:29:42;8.80;70.50
81311;DHT22;70779;52.506;5.492;2024-03-23T02:32:08;8.80;70.40
81311;DHT22;70779;52.506;5.492;2024-03-23T02:34:37;8.80;70.20
81311;DHT22;70779;52.506;5.492;2024-03-23T02:37:10;8.80;70.10
81311;DHT22;70779;52.506;5.492;2024-03-23T02:39:36;8.80;69.90
81311;DHT22;70779;52.506;5.492;2024-03-23T02:42:03;8.80;69.60
81311;DHT22;70779;52.506;5.492;2024-03-23T02:44:29;8.80;69.10
81311;DHT22;70779;52.506;5.492;2024-03-23T02:46:55;8.80;68.80
81311;DHT22;70779;52.506;5.492;2024-03-23T02:49:21;8.80;68.50
81311;DHT22;70779;52.506;5.492;2024-03-23T02:51:47;8.80;68.30
81311;DHT22;70779;52.506;5.492;2024-03-23T02:54:14;8.80;68.20
81311;DHT22;70779;52.506;5.492;2024-03-23T02:56:40;8.80;68.00
81311;DHT22;70779;52.506;5.492;2024-03-23T02:59:07;8.80;67.80
81311;DHT22;70779;52.506;5.492;2024-03-23T03:01:33;8.80;67.50
81311;DHT22;70779;52.506;5.492;2024-03-23T03:04:00;8.80;67.50
81311;DHT22;70779;52.506;5.492;2024-03-23T03:06:26;8.80;67.40
81311;DHT22;70779;52.506;5.492;2024-03-23T03:08:52;8.80;67.30
81311;DHT22;70779;52.506;5.492;2024-03-23T03:11:19;8.80;67.30
81311;DHT22;70779;52.506;5.492;2024-03-23T03:13:45;8.70;67.30
81311;DHT22;70779;52.506;5.492;2024-03-23T03:16:11;8.70;67.30
81311;DHT22;70779;52.506;5.492;2024-03-23T03:18:38;8.70;67.30
81311;DHT22;70779;52.506;5.492;2024-03-23T03:21:04;8.60;67.30
81311;DHT22;70779;52.506;5.492;2024-03-23T03:23:32;8.60;67.40
81311;DHT22;70779;52.506;5.492;2024-03-23T03:25:58;8.60;67.50
81311;DHT22;70779;52.506;5.492;2024-03-23T03:28:24;8.60;67.50
81311;DHT22;70779;52.506;5.492;2024-03-23T03:30:52;8.60;67.50
81311;DHT22;70779;52.506;5.492;2024-03-23T03:33:18;8.60;67.50
81311;DHT22;70779;52.506;5.492;2024-03-23T03:35:44;8.50;67.40
81311;DHT22;70779;52.506;5.492;2024-03-23T03:38:11;8.50;67.40
81311;DHT22;70779;52.506;5.492;2024-03-23T03:40:37;8.50;67.30
81311;DHT22;70779;52.506;5.492;2024-03-23T03:43:03;8.50;67.20
81311;DHT22;70779;52.506;5.492;2024-03-23T03:45:29;8.50;67.10
81311;DHT22;70779;52.506;5.492;2024-03-23T03:47:55;8.50;67.00
81311;DHT22;70779;52.506;5.492;2024-03-23T03:50:22;8.50;66.90
81311;DHT22;70779;52.506;5.492;2024-03-23T03:52:48;8.50;66.80
81311;DHT22;70779;52.506;5.492;2024-03-23T03:55:15;8.50;66.70
81311;DHT22;70779;52.506;5.492;2024-03-23T03:57:41;8.50;66.70
81311;DHT22;70779;52.506;5.492;2024-03-23T04:00:08;8.50;66.60
81311;DHT22;70779;52.506;5.492;2024-03-23T04:02:38;8.50;66.50
81311;DHT22;70779;52.506;5.492;2024-03-23T04:05:04;8.50;66.60
81311;DHT22;70779;52.506;5.492;2024-03-23T04:07:31;8.40;66.50
81311;DHT22;70779;52.506;5.492;2024-03-23T04:09:57;8.40;66.50
81311;DHT22;70779;52.506;5.492;2024-03-23T04:12:23;8.40;66.50
81311;DHT22;70779;52.506;5.492;2024-03-23T04:14:49;8.40;66.60
81311;DHT22;70779;52.506;5.492;2024-03-23T04:17:16;8.40;66.60
81311;DHT22;70779;52.506;5.492;2024-03-23T04:19:42;8.30;66.70
81311;DHT22;70779;52.506;5.492;2024-03-23T04:22:08;8.30;66.70
81311;DHT22;70779;52.506;5.492;2024-03-23T04:24:34;8.30;66.70
81311;DHT22;70779;52.506;5.492;2024-03-23T04:27:01;8.20;66.80
81311;DHT22;70779;52.506;5.492;2024-03-23T04:29:27;8.20;67.00
81311;DHT22;70779;52.506;5.492;2024-03-23T04:31:53;8.20;67.20
81311;DHT22;70779;52.506;5.492;2024-03-23T04:34:19;8.30;67.40
81311;DHT22;70779;52.506;5.492;2024-03-23T04:36:45;8.40;67.40
81311;DHT22;70779;52.506;5.492;2024-03-23T04:39:11;8.40;67.10
81311;DHT22;70779;52.506;5.492;2024-03-23T04:41:37;8.40;66.90
81311;DHT22;70779;52.506;5.492;2024-03-23T04:44:03;8.40;66.80
81311;DHT22;70779;52.506;5.492;2024-03-23T04:46:29;8.40;66.80
81311;DHT22;70779;52.506;5.492;2024-03-23T04:48:55;8.40;67.20
81311;DHT22;70779;52.506;5.492;2024-03-23T04:51:23;8.40;67.50
81311;DHT22;70779;52.506;5.492;2024-03-23T04:53:49;8.50;67.50
81311;DHT22;70779;52.506;5.492;2024-03-23T04:56:16;8.60;67.20
81311;DHT22;70779;52.506;5.492;2024-03-23T04:58:43;8.80;66.70
81311;DHT22;70779;52.506;5.492;2024-03-23T05:01:10;8.90;66.20
81311;DHT22;70779;52.506;5.492;2024-03-23T05:03:37;9.00;66.10
81311;DHT22;70779;52.506;5.492;2024-03-23T05:06:04;9.00;65.90
81311;DHT22;70779;52.506;5.492;2024-03-23T05:08:31;9.00;65.80
81311;DHT22;70779;52.506;5.492;2024-03-23T05:10:57;8.90;65.70
81311;DHT22;70779;52.506;5.492;2024-03-23T05:13:23;8.90;65.80
81311;DHT22;70779;52.506;5.492;2024-03-23T05:15:56;8.80;65.90
81311;DHT22;70779;52.506;5.492;2024-03-23T05:18:22;8.70;66.10
81311;DHT22;70779;52.506;5.492;2024-03-23T05:20:48;8.60;66.20
81311;DHT22;70779;52.506;5.492;2024-03-23T05:23:14;8.80;66.40
81311;DHT22;70779;52.506;5.492;2024-03-23T05:25:41;8.80;66.40
81311;DHT22;70779;52.506;5.492;2024-03-23T05:28:07;8.90;66.30
81311;DHT22;70779;52.506;5.492;2024-03-23T05:30:33;9.00;66.20
81311;DHT22;70779;52.506;5.492;2024-03-23T05:32:59;9.10;66.10
81311;DHT22;70779;52.506;5.492;2024-03-23T05:35:25;9.20;65.80
81311;DHT22;70779;52.506;5.492;2024-03-23T05:37:51;9.30;65.70
81311;DHT22;70779;52.506;5.492;2024-03-23T05:40:18;9.40;65.40
81311;DHT22;70779;52.506;5.492;2024-03-23T05:42:44;9.40;65.20
81311;DHT22;70779;52.506;5.492;2024-03-23T05:45:10;9.50;65.00
81311;DHT22;70779;52.506;5.492;2024-03-23T05:47:37;9.50;65.00
81311;DHT22;70779;52.506;5.492;2024-03-23T05:50:03;9.40;64.90
81311;DHT22;70779;52.506;5.492;2024-03-23T05:52:30;9.40;65.00
81311;DHT22;70779;52.506;5.492;2024-03-23T05:54:56;9.40;65.00
81311;DHT22;70779;52.506;5.492;2024-03-23T05:57:22;9.30;65.20
81311;DHT22;70779;52.506;5.492;2024-03-23T05:59:48;9.40;65.50
81311;DHT22;70779;52.506;5.492;2024-03-23T06:02:14;9.40;65.80
81311;DHT22;70779;52.506;5.492;2024-03-23T06:04:40;9.50;65.90
81311;DHT22;70779;52.506;5.492;2024-03-23T06:07:06;9.70;65.70
81311;DHT22;70779;52.506;5.492;2024-03-23T06:09:32;9.70;65.30
81311;DHT22;70779;52.506;5.492;2024-03-23T06:11:59;9.80;65.00
81311;DHT22;70779;52.506;5.492;2024-03-23T06:14:25;9.80;65.00
81311;DHT22;70779;52.506;5.492;2024-03-23T06:16:51;9.90;65.10
81311;DHT22;70779;52.506;5.492;2024-03-23T06:19:17;10.00;65.00
81311;DHT22;70779;52.506;5.492;2024-03-23T06:21:44;10.00;64.80
81311;DHT22;70779;52.506;5.492;2024-03-23T06:24:11;10.00;64.80
81311;DHT22;70779;52.506;5.492;2024-03-23T06:26:37;10.10;64.80
81311;DHT22;70779;52.506;5.492;2024-03-23T06:29:03;10.20;64.60
81311;DHT22;70779;52.506;5.492;2024-03-23T06:31:31;10.20;64.30
81311;DHT22;70779;52.506;5.492;2024-03-23T06:33:57;10.10;64.50
81311;DHT22;70779;52.506;5.492;2024-03-23T06:36:23;10.00;64.70
81311;DHT22;70779;52.506;5.492;2024-03-23T06:38:49;10.00;64.90
81311;DHT22;70779;52.506;5.492;2024-03-23T06:41:16;9.90;65.00
81311;DHT22;70779;52.506;5.492;2024-03-23T06:43:42;9.80;65.70
81311;DHT22;70779;52.506;5.492;2024-03-23T06:46:09;9.90;68.00
81311;DHT22;70779;52.506;5.492;2024-03-23T06:48:35;10.00;68.00
81311;DHT22;70779;52.506;5.492;2024-03-23T06:51:01;10.20;66.30
81311;DHT22;70779;52.506;5.492;2024-03-23T06:53:27;10.20;65.70
81311;DHT22;70779;52.506;5.492;2024-03-23T06:55:54;10.30;65.30
81311;DHT22;70779;52.506;5.492;2024-03-23T06:58:21;10.40;64.50
81311;DHT22;70779;52.506;5.492;2024-03-23T07:00:47;10.50;64.00
81311;DHT22;70779;52.506;5.492;2024-03-23T07:03:14;10.60;64.00
81311;DHT22;70779;52.506;5.492;2024-03-23T07:05:40;10.60;64.10
81311;DHT22;70779;52.506;5.492;2024-03-23T07:08:06;10.70;64.00
81311;DHT22;70779;52.506;5.492;2024-03-23T07:10:32;10.90;65.70
81311;DHT22;70779;52.506;5.492;2024-03-23T07:12:58;11.00;65.30
81311;DHT22;70779;52.506;5.492;2024-03-23T07:15:25;11.20;65.30
81311;DHT22;70779;52.506;5.492;2024-03-23T07:17:51;11.30;64.00
81311;DHT22;70779;52.506;5.492;2024-03-23T07:20:17;11.40;64.60
81311;DHT22;70779;52.506;5.492;2024-03-23T07:22:45;11.50;63.30
81311;DHT22;70779;52.506;5.492;2024-03-23T07:25:11;11.40;62.20
81311;DHT22;70779;52.506;5.492;2024-03-23T07:27:38;11.30;61.90
81311;DHT22;70779;52.506;5.492;2024-03-23T07:30:04;11.20;62.20
81311;DHT22;70779;52.506;5.492;2024-03-23T07:32:31;11.10;62.50
81311;DHT22;70779;52.506;5.492;2024-03-23T07:34:57;11.10;62.80
81311;DHT22;70779;52.506;5.492;2024-03-23T07:37:23;11.00;62.70
81311;DHT22;70779;52.506;5.492;2024-03-23T07:39:49;11.00;62.20
81311;DHT22;70779;52.506;5.492;2024-03-23T07:42:15;11.00;61.10
81311;DHT22;70779;52.506;5.492;2024-03-23T07:44:41;10.90;60.90
81311;DHT22;70779;52.506;5.492;2024-03-23T07:47:07;10.80;60.90
81311;DHT22;70779;52.506;5.492;2024-03-23T07:49:34;10.80;60.50
81311;DHT22;70779;52.506;5.492;2024-03-23T07:52:00;10.70;60.70
81311;DHT22;70779;52.506;5.492;2024-03-23T07:54:26;10.60;60.70
81311;DHT22;70779;52.506;5.492;2024-03-23T07:56:52;10.50;61.10
81311;DHT22;70779;52.506;5.492;2024-03-23T07:59:18;10.40;61.60
81311;DHT22;70779;52.506;5.492;2024-03-23T08:01:45;11.00;63.20
81311;DHT22;70779;52.506;5.492;2024-03-23T08:04:11;12.20;62.10
81311;DHT22;70779;52.506;5.492;2024-03-23T08:06:38;13.30;59.40
81311;DHT22;70779;52.506;5.492;2024-03-23T08:09:04;13.60;56.80
81311;DHT22;70779;52.506;5.492;2024-03-23T08:11:31;13.60;57.00
81311;DHT22;70779;52.506;5.492;2024-03-23T08:13:58;13.90;56.50
81311;DHT22;70779;52.506;5.492;2024-03-23T08:16:24;14.30;56.10
81311;DHT22;70779;52.506;5.492;2024-03-23T08:18:54;15.10;54.90
81311;DHT22;70779;52.506;5.492;2024-03-23T08:21:22;15.60;52.90
81311;DHT22;70779;52.506;5.492;2024-03-23T08:23:48;15.80;52.10
81311;DHT22;70779;52.506;5.492;2024-03-23T08:26:16;15.70;51.80
81311;DHT22;70779;52.506;5.492;2024-03-23T08:28:43;15.40;51.30
81311;DHT22;70779;52.506;5.492;2024-03-23T08:31:11;15.00;52.00
81311;DHT22;70779;52.506;5.492;2024-03-23T08:33:37;14.50;52.40
81311;DHT22;70779;52.506;5.492;2024-03-23T08:36:06;14.10;52.80
81311;DHT22;70779;52.506;5.492;2024-03-23T08:38:32;13.80;52.90
81311;DHT22;70779;52.506;5.492;2024-03-23T08:41:02;13.50;54.50
81311;DHT22;70779;52.506;5.492;2024-03-23T08:43:29;13.80;54.20
81311;DHT22;70779;52.506;5.492;2024-03-23T08:46:06;14.10;53.70
81311;DHT22;70779;52.506;5.492;2024-03-23T08:48:38;14.30;53.00
81311;DHT22;70779;52.506;5.492;2024-03-23T08:51:05;14.00;52.50
81311;DHT22;70779;52.506;5.492;2024-03-23T08:53:32;13.90;53.50
81311;DHT22;70779;52.506;5.492;2024-03-23T08:55:59;14.60;52.90
81311;DHT22;70779;52.506;5.492;2024-03-23T08:58:27;15.60;50.80
81311;DHT22;70779;52.506;5.492;2024-03-23T09:00:56;16.10;49.30
81311;DHT22;70779;52.506;5.492;2024-03-23T09:03:25;16.10;48.80
81311;DHT22;70779;52.506;5.492;2024-03-23T09:05:52;16.00;49.80
81311;DHT22;70779;52.506;5.492;2024-03-23T09:08:19;16.50;49.90
81311;DHT22;70779;52.506;5.492;2024-03-23T09:10:45;17.60;47.80
81311;DHT22;70779;52.506;5.492;2024-03-23T09:13:11;18.60;45.70
81311;DHT22;70779;52.506;5.492;2024-03-23T09:15:45;18.60;46.00
81311;DHT22;70779;52.506;5.492;2024-03-23T09:18:11;19.30;45.70
81311;DHT22;70779;52.506;5.492;2024-03-23T09:20:37;20.40;44.40
81311;DHT22;70779;52.506;5.492;2024-03-23T09:23:04;21.40;43.10
81311;DHT22;70779;52.506;5.492;2024-03-23T09:25:30;21.90;40.80
81311;DHT22;70779;52.506;5.492;2024-03-23T09:27:56;21.10;40.70
81311;DHT22;70779;52.506;5.492;2024-03-23T09:30:22;19.60;41.80
81311;DHT22;70779;52.506;5.492;2024-03-23T09:32:48;18.10;43.10
81311;DHT22;70779;52.506;5.492;2024-03-23T09:35:15;16.90;44.50
81311;DHT22;70779;52.506;5.492;2024-03-23T09:37:41;16.10;46.60
81311;DHT22;70779;52.506;5.492;2024-03-23T09:40:10;16.70;47.50
81311;DHT22;70779;52.506;5.492;2024-03-23T09:42:37;18.10;45.60
81311;DHT22;70779;52.506;5.492;2024-03-23T09:45:11;19.50;43.90
81311;DHT22;70779;52.506;5.492;2024-03-23T09:47:42;20.80;42.50
81311;DHT22;70779;52.506;5.492;2024-03-23T09:50:09;21.40;41.60
81311;DHT22;70779;52.506;5.492;2024-03-23T09:52:35;21.30;41.50
81311;DHT22;70779;52.506;5.492;2024-03-23T09:55:01;20.60;42.30
81311;DHT22;70779;52.506;5.492;2024-03-23T09:57:29;19.70;43.20
81311;DHT22;70779;52.506;5.492;2024-03-23T09:59:55;19.40;45.00
81311;DHT22;70779;52.506;5.492;2024-03-23T10:02:24;20.10;44.60
81311;DHT22;70779;52.506;5.492;2024-03-23T10:04:51;21.10;42.80
81311;DHT22;70779;52.506;5.492;2024-03-23T10:07:21;21.50;41.40
81311;DHT22;70779;52.506;5.492;2024-03-23T10:09:50;21.30;40.70
81311;DHT22;70779;52.506;5.492;2024-03-23T10:12:22;20.10;41.10
81311;DHT22;70779;52.506;5.492;2024-03-23T10:14:50;18.90;42.90
81311;DHT22;70779;52.506;5.492;2024-03-23T10:17:17;18.20;44.70
81311;DHT22;70779;52.506;5.492;2024-03-23T10:19:44;18.20;45.00
81311;DHT22;70779;52.506;5.492;2024-03-23T10:22:14;18.40;44.70
81311;DHT22;70779;52.506;5.492;2024-03-23T10:24:41;18.50;43.50
81311;DHT22;70779;52.506;5.492;2024-03-23T10:27:08;18.00;43.60
81311;DHT22;70779;52.506;5.492;2024-03-23T10:29:37;17.40;44.20
81311;DHT22;70779;52.506;5.492;2024-03-23T10:32:13;16.70;45.40
81311;DHT22;70779;52.506;5.492;2024-03-23T10:34:40;16.30;45.90
81311;DHT22;70779;52.506;5.492;2024-03-23T10:37:06;15.80;46.30
81311;DHT22;70779;52.506;5.492;2024-03-23T10:39:37;15.60;47.00
81311;DHT22;70779;52.506;5.492;2024-03-23T10:42:05;15.30;47.90
81311;DHT22;70779;52.506;5.492;2024-03-23T10:44:32;15.50;48.20
81311;DHT22;70779;52.506;5.492;2024-03-23T10:46:58;15.60;47.90
81311;DHT22;70779;52.506;5.492;2024-03-23T10:49:27;15.50;47.50
81311;DHT22;70779;52.506;5.492;2024-03-23T10:51:57;15.30;48.30
81311;DHT22;70779;52.506;5.492;2024-03-23T10:54:25;14.90;49.40
81311;DHT22;70779;52.506;5.492;2024-03-23T10:56:56;14.80;49.90
81311;DHT22;70779;52.506;5.492;2024-03-23T10:59:24;14.60;50.00
81311;DHT22;70779;52.506;5.492;2024-03-23T11:01:58;14.40;50.20
81311;DHT22;70779;52.506;5.492;2024-03-23T11:04:37;14.20;50.20
81311;DHT22;70779;52.506;5.492;2024-03-23T11:09:55;13.70;51.70
81311;DHT22;70779;52.506;5.492;2024-03-23T11:14:50;13.80;52.50
81311;DHT22;70779;52.506;5.492;2024-03-23T11:17:20;13.90;52.20
81311;DHT22;70779;52.506;5.492;2024-03-23T11:20:00;13.90;52.90
81311;DHT22;70779;52.506;5.492;2024-03-23T11:22:40;14.00;52.70
81311;DHT22;70779;52.506;5.492;2024-03-23T11:25:20;14.00;53.30
81311;DHT22;70779;52.506;5.492;2024-03-23T11:27:48;14.10;53.10
81311;DHT22;70779;52.506;5.492;2024-03-23T11:30:16;14.10;53.30
81311;DHT22;70779;52.506;5.492;2024-03-23T11:32:44;14.10;53.50
81311;DHT22;70779;52.506;5.492;2024-03-23T11:35:10;14.00;52.90
81311;DHT22;70779;52.506;5.492;2024-03-23T11:37:37;14.10;52.30
81311;DHT22;70779;52.506;5.492;2024-03-23T11:40:30;14.20;51.80
81311;DHT22;70779;52.506;5.492;2024-03-23T11:43:02;14.30;51.00
81311;DHT22;70779;52.506;5.492;2024-03-23T11:45:33;14.20;49.80
81311;DHT22;70779;52.506;5.492;2024-03-23T11:48:16;14.00;49.50
81311;DHT22;70779;52.506;5.492;2024-03-23T11:50:47;13.90;50.10
81311;DHT22;70779;52.506;5.492;2024-03-23T11:53:18;13.50;50.70
81311;DHT22;70779;52.506;5.492;2024-03-23T11:55:55;13.30;51.40
81311;DHT22;70779;52.506;5.492;2024-03-23T11:58:26;13.10;52.30
81311;DHT22;70779;52.506;5.492;2024-03-23T12:01:03;13.10;53.00
81311;DHT22;70779;52.506;5.492;2024-03-23T12:03:30;13.10;54.90
81311;DHT22;70779;52.506;5.492;2024-03-23T12:05:58;12.80;54.90
81311;DHT22;70779;52.506;5.492;2024-03-23T12:11:17;12.30;55.70
81311;DHT22;70779;52.506;5.492;2024-03-23T12:13:44;12.10;55.40
81311;DHT22;70779;52.506;5.492;2024-03-23T12:16:21;11.90;55.80
81311;DHT22;70779;52.506;5.492;2024-03-23T12:18:50;11.70;56.20
81311;DHT22;70779;52.506;5.492;2024-03-23T12:21:20;11.50;56.80
81311;DHT22;70779;52.506;5.492;2024-03-23T12:23:49;11.50;57.50
81311;DHT22;70779;52.506;5.492;2024-03-23T12:26:16;11.50;58.50
81311;DHT22;70779;52.506;5.492;2024-03-23T12:28:43;11.70;58.80
81311;DHT22;70779;52.506;5.492;2024-03-23T12:31:10;11.90;58.60
81311;DHT22;70779;52.506;5.492;2024-03-23T12:33:36;12.20;58.50
81311;DHT22;70779;52.506;5.492;2024-03-23T12:36:03;12.50;58.20
81311;DHT22;70779;52.506;5.492;2024-03-23T12:38:30;12.80;57.30
81311;DHT22;70779;52.506;5.492;2024-03-23T12:40:56;13.00;56.70
81311;DHT22;70779;52.506;5.492;2024-03-23T12:43:22;13.20;56.60
81311;DHT22;70779;52.506;5.492;2024-03-23T12:45:49;13.50;55.50
81311;DHT22;70779;52.506;5.492;2024-03-23T12:48:16;13.50;55.70
81311;DHT22;70779;52.506;5.492;2024-03-23T12:50:42;13.30;56.70
81311;DHT22;70779;52.506;5.492;2024-03-23T12:53:08;13.20;57.60
81311;DHT22;70779;52.506;5.492;2024-03-23T12:55:37;13.10;57.20
81311;DHT22;70779;52.506;5.492;2024-03-23T12:58:03;13.10;56.60
81311;DHT22;70779;52.506;5.492;2024-03-23T13:00:30;13.00;56.90
81311;DHT22;70779;52.506;5.492;2024-03-23T13:02:56;12.90;57.40
81311;DHT22;70779;52.506;5.492;2024-03-23T13:05:22;12.90;58.20
81311;DHT22;70779;52.506;5.492;2024-03-23T13:07:48;13.10;58.30
81311;DHT22;70779;52.506;5.492;2024-03-23T13:10:15;13.20;57.60
81311;DHT22;70779;52.506;5.492;2024-03-23T13:12:41;13.30;57.70
81311;DHT22;70779;52.506;5.492;2024-03-23T13:15:09;13.50;57.10
81311;DHT22;70779;52.506;5.492;2024-03-23T13:17:35;13.40;57.10
81311;DHT22;70779;52.506;5.492;2024-03-23T13:20:01;13.50;57.10
81311;DHT22;70779;52.506;5.492;2024-03-23T13:22:27;13.50;56.90
81311;DHT22;70779;52.506;5.492;2024-03-23T13:24:54;13.60;56.20
81311;DHT22;70779;52.506;5.492;2024-03-23T13:27:20;13.60;56.30
81311;DHT22;70779;52.506;5.492;2024-03-23T13:29:46;13.60;55.40
81311;DHT22;70779;52.506;5.492;2024-03-23T13:32:12;13.50;56.00
81311;DHT22;70779;52.506;5.492;2024-03-23T13:34:39;13.40;55.20
81311;DHT22;70779;52.506;5.492;2024-03-23T13:37:06;13.30;56.10
81311;DHT22;70779;52.506;5.492;2024-03-23T13:39:33;13.20;56.00
81311;DHT22;70779;52.506;5.492;2024-03-23T13:41:59;13.10;56.30
81311;DHT22;70779;52.506;5.492;2024-03-23T13:44:25;13.10;55.10
81311;DHT22;70779;52.506;5.492;2024-03-23T13:46:51;13.10;53.60
81311;DHT22;70779;52.506;5.492;2024-03-23T13:49:28;13.10;53.80
81311;DHT22;70779;52.506;5.492;2024-03-23T13:51:55;13.00;54.10
81311;DHT22;70779;52.506;5.492;2024-03-23T13:54:21;13.00;54.70
81311;DHT22;70779;52.506;5.492;2024-03-23T13:56:49;13.00;54.80
81311;DHT22;70779;52.506;5.492;2024-03-23T13:59:15;13.00;54.80
81311;DHT22;70779;52.506;5.492;2024-03-23T14:01:41;13.10;55.60
81311;DHT22;70779;52.506;5.492;2024-03-23T14:04:08;13.20;54.40
81311;DHT22;70779;52.506;5.492;2024-03-23T14:06:34;13.30;54.60
81311;DHT22;70779;52.506;5.492;2024-03-23T14:09:00;13.40;53.90
81311;DHT22;70779;52.506;5.492;2024-03-23T14:11:26;13.30;54.20
81311;DHT22;70779;52.506;5.492;2024-03-23T14:13:52;13.30;54.40
81311;DHT22;70779;52.506;5.492;2024-03-23T14:16:19;13.30;54.10
81311;DHT22;70779;52.506;5.492;2024-03-23T14:18:48;13.40;53.50
81311;DHT22;70779;52.506;5.492;2024-03-23T14:21:14;13.30;53.40
81311;DHT22;70779;52.506;5.492;2024-03-23T14:23:40;13.30;53.00
81311;DHT22;70779;52.506;5.492;2024-03-23T14:26:09;13.10;52.50
81311;DHT22;70779;52.506;5.492;2024-03-23T14:28:35;12.90;52.90
81311;DHT22;70779;52.506;5.492;2024-03-23T14:31:01;12.80;53.00
81311;DHT22;70779;52.506;5.492;2024-03-23T14:33:29;12.60;53.40
81311;DHT22;70779;52.506;5.492;2024-03-23T14:35:55;12.50;53.60
81311;DHT22;70779;52.506;5.492;2024-03-23T14:38:23;12.50;53.30
81311;DHT22;70779;52.506;5.492;2024-03-23T14:40:49;12.50;53.60
81311;DHT22;70779;52.506;5.492;2024-03-23T14:43:17;12.50;53.60
81311;DHT22;70779;52.506;5.492;2024-03-23T14:48:31;12.20;56.00
81311;DHT22;70779;52.506;5.492;2024-03-23T14:50:59;11.90;56.70
81311;DHT22;70779;52.506;5.492;2024-03-23T14:53:26;11.50;56.90
81311;DHT22;70779;52.506;5.492;2024-03-23T14:55:59;11.10;57.60
81311;DHT22;70779;52.506;5.492;2024-03-23T14:58:26;11.00;58.40
81311;DHT22;70779;52.506;5.492;2024-03-23T15:00:52;11.00;58.90
81311;DHT22;70779;52.506;5.492;2024-03-23T15:03:19;11.10;58.50
81311;DHT22;70779;52.506;5.492;2024-03-23T15:05:58;11.10;58.20
81311;DHT22;70779;52.506;5.492;2024-03-23T15:08:25;11.00;58.70
81311;DHT22;70779;52.506;5.492;2024-03-23T15:10:51;10.80;58.70
81311;DHT22;70779;52.506;5.492;2024-03-23T15:13:17;10.70;59.50
81311;DHT22;70779;52.506;5.492;2024-03-23T15:15:44;10.50;60.50
81311;DHT22;70779;52.506;5.492;2024-03-23T15:18:11;10.40;60.70
81311;DHT22;70779;52.506;5.492;2024-03-23T15:20:39;10.30;60.90
81311;DHT22;70779;52.506;5.492;2024-03-23T15:23:05;10.20;61.10
81311;DHT22;70779;52.506;5.492;2024-03-23T15:25:31;10.20;60.80
81311;DHT22;70779;52.506;5.492;2024-03-23T15:27:58;10.10;60.70
81311;DHT22;70779;52.506;5.492;2024-03-23T15:30:26;10.10;60.80
81311;DHT22;70779;52.506;5.492;2024-03-23T15:32:52;10.10;60.90
81311;DHT22;70779;52.506;5.492;2024-03-23T15:35:18;10.10;60.80
81311;DHT22;70779;52.506;5.492;2024-03-23T15:37:50;10.10;60.50
81311;DHT22;70779;52.506;5.492;2024-03-23T15:40:16;10.10;60.60
81311;DHT22;70779;52.506;5.492;2024-03-23T15:42:42;10.20;60.60
81311;DHT22;70779;52.506;5.492;2024-03-23T15:45:08;10.30;60.90
81311;DHT22;70779;52.506;5.492;2024-03-23T15:47:35;10.30;60.80
81311;DHT22;70779;52.506;5.492;2024-03-23T15:50:02;10.40;60.90
81311;DHT22;70779;52.506;5.492;2024-03-23T15:52:37;10.40;61.30
81311;DHT22;70779;52.506;5.492;2024-03-23T15:55:04;10.50;61.40
81311;DHT22;70779;52.506;5.492;2024-03-23T15:57:34;10.60;61.10
81311;DHT22;70779;52.506;5.492;2024-03-23T16:00:03;10.70;60.60
81311;DHT22;70779;52.506;5.492;2024-03-23T16:02:37;10.80;60.20
81311;DHT22;70779;52.506;5.492;2024-03-23T16:05:04;10.90;59.60
81311;DHT22;70779;52.506;5.492;2024-03-23T16:07:30;11.00;58.20
81311;DHT22;70779;52.506;5.492;2024-03-23T16:09:56;11.10;58.00
81311;DHT22;70779;52.506;5.492;2024-03-23T16:12:22;11.00;57.50
81311;DHT22;70779;52.506;5.492;2024-03-23T16:14:48;11.00;57.40
81311;DHT22;70779;52.506;5.492;2024-03-23T16:17:14;11.00;57.20
81311;DHT22;70779;52.506;5.492;2024-03-23T16:19:40;11.00;57.60
81311;DHT22;70779;52.506;5.492;2024-03-23T16:22:07;10.90;58.00
81311;DHT22;70779;52.506;5.492;2024-03-23T16:24:33;10.50;59.20
81311;DHT22;70779;52.506;5.492;2024-03-23T16:26:59;10.20;60.40
81311;DHT22;70779;52.506;5.492;2024-03-23T16:29:25;10.00;61.50
81311;DHT22;70779;52.506;5.492;2024-03-23T16:31:51;10.00;62.10
81311;DHT22;70779;52.506;5.492;2024-03-23T16:34:17;10.00;62.30
81311;DHT22;70779;52.506;5.492;2024-03-23T16:36:44;10.00;62.20
81311;DHT22;70779;52.506;5.492;2024-03-23T16:39:10;10.00;61.70
81311;DHT22;70779;52.506;5.492;2024-03-23T16:41:36;9.80;61.70